Alhambra, Illinois
Current Conditions -  °F | °C
As of 8:50 AM on Wednesday 22 Oct 2014 (Local Time) from KALN Reporting Station
Clear Clear  
Wind Chill:   Ceiling: Unl
Heat Index:   Visibility: 10mi
Dew Point:   Wind: 0mph
Humidity: 81%   Direction: NA
Pressure: 30.33"   Gusts: NA
Location:  38.89°N, 89.73°W
Report Text: KALN 221350Z 00000KT 10SM SKC 08/05 A3033
Loading
Personal Weather Stations






























Interactive Weather Map
Tropical Storm Tracking
New forecast layout! Learn more

10-Day Weather Forecast

Advertisements
Track Severe Weather on mobile